Time,TemperatureF,DewpointF,PressureIn,WindDirection,WindDirectionDegrees,WindSpeedMPH,WindSpeedGustMPH,Humidity,HourlyPrecipIn,Conditions,Clouds,dailyrainin,SoftwareType,DateUTC
2013-04-08 00:15:00,53.4,52.8,29.65,South,180,0.0,-999.0,98,-99.99,,,0.00,Acu-Link.com,2013-04-08 07:15:00,
2013-04-08 00:30:00,52.7,52.2,29.65,SSW,202,0.0,-999.0,98,-99.99,,,0.00,Acu-Link.com,2013-04-08 07:30:00,
2013-04-08 00:45:00,52.3,51.8,29.66,WSW,247,0.0,-999.0,98,-99.99,,,0.00,Acu-Link.com,2013-04-08 07:45:00,
2013-04-08 01:00:00,51.8,51.3,29.66,SW,225,0.0,-999.0,98,-99.99,,,0.00,Acu-Link.com,2013-04-08 08:00:00,
2013-04-08 01:15:00,51.8,51.3,29.65,SW,225,0.0,-999.0,98,-99.99,,,0.00,Acu-Link.com,2013-04-08 08:15:00,
2013-04-08 01:30:00,52.0,51.5,29.65,SSW,202,2.2,-999.0,98,-99.99,,,0.00,Acu-Link.com,2013-04-08 08:30:00,
2013-04-08 01:45:00,51.6,51.1,29.64,WNW,292,0.0,-999.0,98,-99.99,,,0.00,Acu-Link.com,2013-04-08 08:45:00,
2013-04-08 02:01:00,51.4,50.9,29.64,SSW,202,1.1,-999.0,98,-99.99,,,0.00,Acu-Link.com,2013-04-08 09:01:00,
2013-04-08 02:16:00,52.0,51.5,29.65,South,180,0.0,-999.0,98,-99.99,,,0.00,Acu-Link.com,2013-04-08 09:16:00,
2013-04-08 02:31:00,51.8,51.3,29.64,SSW,202,2.7,-999.0,98,-99.99,,,0.00,Acu-Link.com,2013-04-08 09:31:00,
2013-04-08 02:46:00,51.4,50.9,29.63,WSW,247,4.7,-999.0,98,-99.99,,,0.00,Acu-Link.com,2013-04-08 09:46:00,
2013-04-08 03:01:00,51.8,51.3,29.61,ESE,112,0.0,-999.0,98,-99.99,,,0.00,Acu-Link.com,2013-04-08 10:01:00,
2013-04-08 03:17:00,51.4,50.9,29.62,SSW,202,0.0,-999.0,98,-99.99,,,0.00,Acu-Link.com,2013-04-08 10:17:00,
2013-04-08 03:32:00,51.8,51.3,29.61,WNW,292,0.0,-999.0,98,-99.99,,,0.00,Acu-Link.com,2013-04-08 10:32:00,
2013-04-08 03:47:00,52.0,51.5,29.60,SSW,202,5.3,-999.0,98,-99.99,,,0.00,Acu-Link.com,2013-04-08 10:47:00,
2013-04-08 04:02:00,52.0,51.5,29.59,West,270,6.3,-999.0,98,-99.99,,,0.00,Acu-Link.com,2013-04-08 11:02:00,
2013-04-08 04:17:00,51.8,51.3,29.59,NNW,337,5.3,-999.0,98,-99.99,,,0.00,Acu-Link.com,2013-04-08 11:17:00,
2013-04-08 04:32:00,52.0,51.5,29.58,WSW,247,6.3,-999.0,98,-99.99,,,0.00,Acu-Link.com,2013-04-08 11:32:00,
2013-04-08 04:47:00,52.2,51.7,29.58,SW,225,4.7,-999.0,98,-99.99,,,0.00,Acu-Link.com,2013-04-08 11:47:00,
2013-04-08 05:17:00,51.8,51.3,29.57,SSW,202,4.2,-999.0,98,-99.99,,,0.00,Acu-Link.com,2013-04-08 12:17:00,
2013-04-08 05:33:00,51.6,51.1,29.57,SSE,157,1.1,-999.0,98,-99.99,,,0.00,Acu-Link.com,2013-04-08 12:33:00,
2013-04-08 05:48:00,50.9,50.4,29.59,WSW,247,2.2,-999.0,98,-99.99,,,0.00,Acu-Link.com,2013-04-08 12:48:00,
2013-04-08 06:03:00,50.7,50.2,29.59,SSW,202,1.1,-999.0,98,-99.99,,,0.00,Acu-Link.com,2013-04-08 13:03:00,
2013-04-08 06:18:00,51.3,50.8,29.58,West,270,2.7,-999.0,98,-99.99,,,0.00,Acu-Link.com,2013-04-08 13:18:00,
2013-04-08 06:33:00,50.9,50.4,29.57,South,180,3.7,-999.0,98,-99.99,,,0.00,Acu-Link.com,2013-04-08 13:33:00,
2013-04-08 06:48:00,50.9,50.4,29.58,South,180,1.7,-999.0,98,-99.99,,,0.00,Acu-Link.com,2013-04-08 13:48:00,
2013-04-08 07:03:00,51.3,50.8,29.58,SW,225,5.8,-999.0,98,-99.99,,,0.00,Acu-Link.com,2013-04-08 14:03:00,
2013-04-08 07:34:00,51.4,50.9,29.56,West,270,7.3,-999.0,98,-99.99,,,0.00,Acu-Link.com,2013-04-08 14:34:00,
2013-04-08 07:49:00,51.6,51.1,29.56,SSW,202,8.9,-999.0,98,-99.99,,,0.00,Acu-Link.com,2013-04-08 14:49:00,
2013-04-08 08:04:00,52.9,52.4,29.57,ESE,112,5.8,-999.0,98,-99.99,,,0.00,Acu-Link.com,2013-04-08 15:04:00,
2013-04-08 08:34:00,56.1,55.5,29.57,WSW,247,7.3,-999.0,98,-99.99,,,0.00,Acu-Link.com,2013-04-08 15:34:00,
2013-04-08 08:49:00,56.7,-42.9,29.57,SW,225,9.9,-999.0,1,-99.99,,,0.00,Acu-Link.com,2013-04-08 15:49:00,
2013-04-08 09:19:00,58.3,-41.9,29.58,WNW,292,5.8,-999.0,1,-99.99,,,0.00,Acu-Link.com,2013-04-08 16:19:00,
2013-04-08 09:35:00,58.6,-16.5,29.58,West,270,5.3,-999.0,4,-99.99,,,0.00,Acu-Link.com,2013-04-08 16:35:00,
2013-04-08 10:05:00,59.9,-40.9,29.59,SW,225,8.3,-999.0,1,-99.99,,,0.00,Acu-Link.com,2013-04-08 17:05:00,
2013-04-08 10:20:00,61.0,-40.2,29.58,NNE,22,5.8,-999.0,1,-99.99,,,0.00,Acu-Link.com,2013-04-08 17:20:00,
2013-04-08 10:35:00,61.7,-39.8,29.57,SSW,202,8.9,-999.0,1,-99.99,,,0.00,Acu-Link.com,2013-04-08 17:35:00,
2013-04-08 10:50:00,62.6,-39.3,29.58,WNW,292,11.4,-999.0,1,-99.99,,,0.00,Acu-Link.com,2013-04-08 17:50:00,
2013-04-08 11:05:00,64.0,-38.4,29.58,SSW,202,7.8,-999.0,1,-99.99,,,0.00,Acu-Link.com,2013-04-08 18:05:00,
2013-04-08 11:21:00,65.5,-37.5,29.58,West,270,8.3,-999.0,1,-99.99,,,0.00,Acu-Link.com,2013-04-08 18:21:00,
2013-04-08 12:21:00,64.9,-37.9,29.58,SSE,157,8.9,-999.0,1,-99.99,,,0.00,Acu-Link.com,2013-04-08 19:21:00,
2013-04-08 12:36:00,65.7,-37.4,29.58,NW,315,10.4,-999.0,1,-99.99,,,0.00,Acu-Link.com,2013-04-08 19:36:00,
2013-04-08 13:06:00,66.6,-36.9,29.56,West,270,9.9,-999.0,1,-99.99,,,0.00,Acu-Link.com,2013-04-08 20:06:00,
2013-04-08 13:22:00,68.2,-35.9,29.55,West,270,7.8,-999.0,1,-99.99,,,0.00,Acu-Link.com,2013-04-08 20:22:00,
2013-04-08 13:37:00,66.7,-36.8,29.55,West,270,10.9,-999.0,1,-99.99,,,0.00,Acu-Link.com,2013-04-08 20:37:00,
2013-04-08 13:52:00,69.1,-35.4,29.56,SSW,202,3.7,-999.0,1,-99.99,,,0.00,Acu-Link.com,2013-04-08 20:52:00,
2013-04-08 14:07:00,68.2,-35.9,29.54,West,270,8.3,-999.0,1,-99.99,,,0.00,Acu-Link.com,2013-04-08 21:07:00,
2013-04-08 14:22:00,68.5,-35.7,29.53,West,270,5.8,-999.0,1,-99.99,,,0.00,Acu-Link.com,2013-04-08 21:22:00,
2013-04-08 14:37:00,72.1,-33.6,29.53,SW,225,9.4,-999.0,1,-99.99,,,0.00,Acu-Link.com,2013-04-08 21:37:00,
2013-04-08 14:52:00,71.1,-34.2,29.52,South,180,5.8,-999.0,1,-99.99,,,0.00,Acu-Link.com,2013-04-08 21:52:00,
2013-04-08 15:22:00,75.4,-31.6,29.53,West,270,7.3,-999.0,1,-99.99,,,0.00,Acu-Link.com,2013-04-08 22:22:00,
2013-04-08 15:38:00,75.0,-31.8,29.55,SW,225,2.7,-999.0,1,-99.99,,,0.00,Acu-Link.com,2013-04-08 22:38:00,
2013-04-08 15:53:00,74.3,-32.2,29.55,WNW,292,5.3,-999.0,1,-99.99,,,0.00,Acu-Link.com,2013-04-08 22:53:00,
2013-04-08 16:08:00,75.9,-31.3,29.54,SW,225,3.7,-999.0,1,-99.99,,,0.00,Acu-Link.com,2013-04-08 23:08:00,
2013-04-08 16:23:00,73.6,-32.7,29.54,South,180,4.7,-999.0,1,-99.99,,,0.00,Acu-Link.com,2013-04-08 23:23:00,
2013-04-08 16:38:00,73.4,-32.8,29.54,West,270,6.8,-999.0,1,-99.99,,,0.00,Acu-Link.com,2013-04-08 23:38:00,
2013-04-08 16:53:00,72.7,-33.2,29.54,West,270,6.3,-999.0,1,-99.99,,,0.00,Acu-Link.com,2013-04-08 23:53:00,
2013-04-08 17:08:00,70.7,-34.4,29.54,ESE,112,5.8,-999.0,1,-99.99,,,0.00,Acu-Link.com,2013-04-09 00:08:00,
2013-04-08 17:23:00,70.5,-34.5,29.55,SSW,202,7.8,-999.0,1,-99.99,,,0.00,Acu-Link.com,2013-04-09 00:23:00,
2013-04-08 18:09:00,69.8,-34.9,29.56,West,270,4.7,-999.0,1,-99.99,,,0.00,Acu-Link.com,2013-04-09 01:09:00,
2013-04-08 18:54:00,60.8,-40.4,29.59,ESE,112,1.1,-999.0,1,-99.99,,,0.00,Acu-Link.com,2013-04-09 01:54:00,
2013-04-08 19:09:00,59.0,-41.5,29.60,East,90,6.3,-999.0,1,-99.99,,,0.00,Acu-Link.com,2013-04-09 02:09:00,
2013-04-08 19:24:00,57.4,-42.4,29.60,West,270,2.7,-999.0,1,-99.99,,,0.00,Acu-Link.com,2013-04-09 02:24:00,
2013-04-08 19:39:00,56.7,-42.9,29.61,NE,45,1.1,-999.0,1,-99.99,,,0.00,Acu-Link.com,2013-04-09 02:39:00,
2013-04-08 19:54:00,56.3,-43.1,29.61,ESE,112,1.7,-999.0,1,-99.99,,,0.00,Acu-Link.com,2013-04-09 02:54:00,
2013-04-08 20:10:00,55.8,49.0,29.62,South,180,2.2,-999.0,78,-99.99,,,0.00,Acu-Link.com,2013-04-09 03:10:00,
2013-04-08 20:25:00,55.4,-43.7,29.63,West,270,2.7,-999.0,1,-99.99,,,0.00,Acu-Link.com,2013-04-09 03:25:00,
2013-04-08 20:40:00,55.4,13.8,29.64,South,180,2.7,-999.0,19,-99.99,,,0.00,Acu-Link.com,2013-04-09 03:40:00,
2013-04-08 20:55:00,54.9,5.0,29.65,SW,225,2.7,-999.0,13,-99.99,,,0.00,Acu-Link.com,2013-04-09 03:55:00,
2013-04-08 21:10:00,54.5,-44.2,29.64,South,180,2.7,-999.0,1,-99.99,,,0.00,Acu-Link.com,2013-04-09 04:10:00,
2013-04-08 21:25:00,55.0,-43.9,29.65,East,90,1.7,-999.0,1,-99.99,,,0.00,Acu-Link.com,2013-04-09 04:25:00,
2013-04-08 21:40:00,54.3,-44.3,29.67,West,270,0.0,-999.0,1,-99.99,,,0.00,Acu-Link.com,2013-04-09 04:40:00,
2013-04-08 21:55:00,53.8,53.2,29.67,WSW,247,4.2,-999.0,98,-99.99,,,0.00,Acu-Link.com,2013-04-09 04:55:00,
2013-04-08 22:10:00,53.8,53.2,29.69,WSW,247,2.2,-999.0,98,-99.99,,,0.00,Acu-Link.com,2013-04-09 05:10:00,
2013-04-08 22:25:00,54.0,-44.5,29.68,SW,225,3.7,-999.0,1,-99.99,,,0.00,Acu-Link.com,2013-04-09 05:25:00,
2013-04-08 22:41:00,53.2,35.0,29.68,ENE,67,0.0,-999.0,50,-99.99,,,0.00,Acu-Link.com,2013-04-09 05:41:00,
2013-04-08 22:56:00,53.1,52.5,29.69,South,180,1.7,-999.0,98,-99.99,,,0.00,Acu-Link.com,2013-04-09 05:56:00,
2013-04-08 23:56:00,52.5,-45.4,29.70,WSW,247,1.1,-999.0,1,-99.99,,,0.00,Acu-Link.com,2013-04-09 06:56:00,